sensor_id;sensor_type;location;lat;lon;timestamp;pressure;altitude;pressure_sealevel;temperature;humidity
22662;BME280;11497;52.222;21.246;2022-11-15T00:00:20;100864.28;;;7.05;91.73
22662;BME280;11497;52.222;21.246;2022-11-15T00:03:06;100864.97;;;7.22;91.04
22662;BME280;11497;52.222;21.246;2022-11-15T00:05:53;100858.22;;;7.03;90.81
22662;BME280;11497;52.222;21.246;2022-11-15T00:08:39;100854.91;;;6.91;91.47
22662;BME280;11497;52.222;21.246;2022-11-15T00:11:26;100848.91;;;6.85;91.84
22662;BME280;11497;52.222;21.246;2022-11-15T00:14:12;100853.06;;;6.99;92.07
22662;BME280;11497;52.222;21.246;2022-11-15T00:16:59;100845.41;;;6.89;92.00
22662;BME280;11497;52.222;21.246;2022-11-15T00:19:45;100838.34;;;6.97;92.51
22662;BME280;11497;52.222;21.246;2022-11-15T00:22:33;100834.03;;;6.94;92.13
22662;BME280;11497;52.222;21.246;2022-11-15T00:25:19;100828.78;;;6.97;92.31
22662;BME280;11497;52.222;21.246;2022-11-15T00:28:05;100823.59;;;6.97;91.84
22662;BME280;11497;52.222;21.246;2022-11-15T00:30:52;100826.97;;;7.06;92.14
22662;BME280;11497;52.222;21.246;2022-11-15T00:33:38;100807.03;;;7.05;91.92
22662;BME280;11497;52.222;21.246;2022-11-15T00:36:25;100817.53;;;6.95;92.19
22662;BME280;11497;52.222;21.246;2022-11-15T00:39:11;100811.47;;;6.95;92.28
22662;BME280;11497;52.222;21.246;2022-11-15T00:41:57;100811.63;;;6.84;92.81
22662;BME280;11497;52.222;21.246;2022-11-15T00:44:44;100811.56;;;6.90;93.08
22662;BME280;11497;52.222;21.246;2022-11-15T00:47:30;100798.31;;;7.09;92.91
22662;BME280;11497;52.222;21.246;2022-11-15T00:50:17;100796.56;;;7.09;92.05
22662;BME280;11497;52.222;21.246;2022-11-15T00:53:03;100790.63;;;6.96;92.21
22662;BME280;11497;52.222;21.246;2022-11-15T00:55:50;100782.09;;;6.88;92.65
22662;BME280;11497;52.222;21.246;2022-11-15T00:58:36;100773.41;;;6.89;92.74
22662;BME280;11497;52.222;21.246;2022-11-15T01:01:23;100779.47;;;6.91;93.10
22662;BME280;11497;52.222;21.246;2022-11-15T01:04:09;100766.38;;;6.94;92.96
22662;BME280;11497;52.222;21.246;2022-11-15T01:06:55;100764.69;;;6.92;93.18
22662;BME280;11497;52.222;21.246;2022-11-15T01:09:42;100765.50;;;6.95;92.19
22662;BME280;11497;52.222;21.246;2022-11-15T01:12:28;100759.34;;;7.03;92.23
22662;BME280;11497;52.222;21.246;2022-11-15T01:15:14;100754.38;;;6.84;92.48
22662;BME280;11497;52.222;21.246;2022-11-15T01:18:00;100756.09;;;6.85;92.58
22662;BME280;11497;52.222;21.246;2022-11-15T01:20:47;100757.66;;;6.97;92.45
22662;BME280;11497;52.222;21.246;2022-11-15T01:23:33;100750.84;;;6.91;92.47
22662;BME280;11497;52.222;21.246;2022-11-15T01:26:20;100752.78;;;6.74;92.59
22662;BME280;11497;52.222;21.246;2022-11-15T01:29:06;100737.91;;;6.84;93.03
22662;BME280;11497;52.222;21.246;2022-11-15T01:31:53;100737.06;;;6.83;92.93
22662;BME280;11497;52.222;21.246;2022-11-15T01:34:40;100733.59;;;6.81;92.84
22662;BME280;11497;52.222;21.246;2022-11-15T01:37:26;100726.78;;;6.71;93.18
22662;BME280;11497;52.222;21.246;2022-11-15T01:40:12;100721.66;;;6.65;93.80
22662;BME280;11497;52.222;21.246;2022-11-15T01:42:58;100719.00;;;6.70;94.16
22662;BME280;11497;52.222;21.246;2022-11-15T01:45:48;100711.91;;;6.84;94.50
22662;BME280;11497;52.222;21.246;2022-11-15T01:48:37;100704.81;;;6.93;93.93
22662;BME280;11497;52.222;21.246;2022-11-15T01:51:26;100708.50;;;6.79;93.60
22662;BME280;11497;52.222;21.246;2022-11-15T01:54:17;100693.91;;;6.67;93.80
22662;BME280;11497;52.222;21.246;2022-11-15T01:57:09;100686.97;;;6.66;94.26
22662;BME280;11497;52.222;21.246;2022-11-15T01:59:56;100681.75;;;6.66;94.25
22662;BME280;11497;52.222;21.246;2022-11-15T02:02:43;100686.97;;;6.66;94.35
22662;BME280;11497;52.222;21.246;2022-11-15T02:05:30;100709.44;;;6.73;94.70
22662;BME280;11497;52.222;21.246;2022-11-15T02:08:17;100699.81;;;6.78;94.19
22662;BME280;11497;52.222;21.246;2022-11-15T02:11:09;100685.13;;;6.76;94.11
22662;BME280;11497;52.222;21.246;2022-11-15T02:13:58;100689.47;;;6.75;93.80
22662;BME280;11497;52.222;21.246;2022-11-15T02:29:19;100669.53;;;6.74;95.54
22662;BME280;11497;52.222;21.246;2022-11-15T02:32:20;100676.41;;;6.78;94.56
22662;BME280;11497;52.222;21.246;2022-11-15T02:35:35;100671.16;;;6.81;94.42
22662;BME280;11497;52.222;21.246;2022-11-15T02:42:01;100670.66;;;6.52;95.05
22662;BME280;11497;52.222;21.246;2022-11-15T02:44:49;100671.75;;;6.36;95.83
22662;BME280;11497;52.222;21.246;2022-11-15T02:47:44;100663.88;;;6.42;96.10
22662;BME280;11497;52.222;21.246;2022-11-15T02:50:33;100668.94;;;6.52;96.24
22662;BME280;11497;52.222;21.246;2022-11-15T02:53:25;100666.41;;;6.48;96.26
22662;BME280;11497;52.222;21.246;2022-11-15T02:56:12;100658.44;;;6.58;96.23
22662;BME280;11497;52.222;21.246;2022-11-15T03:11:19;100642.88;;;6.57;95.53
22662;BME280;11497;52.222;21.246;2022-11-15T03:17:24;100634.41;;;6.43;96.82
22662;BME280;11497;52.222;21.246;2022-11-15T03:20:14;100627.47;;;6.43;96.66
22662;BME280;11497;52.222;21.246;2022-11-15T03:23:06;100630.06;;;6.45;96.96
22662;BME280;11497;52.222;21.246;2022-11-15T03:25:54;100628.41;;;6.36;97.07
22662;BME280;11497;52.222;21.246;2022-11-15T03:28:58;100627.44;;;6.45;97.47
22662;BME280;11497;52.222;21.246;2022-11-15T03:31:55;100612.78;;;6.39;97.92
22662;BME280;11497;52.222;21.246;2022-11-15T03:35:06;100601.50;;;6.40;97.62
22662;BME280;11497;52.222;21.246;2022-11-15T03:41:16;100592.63;;;6.55;96.66
22662;BME280;11497;52.222;21.246;2022-11-15T03:44:29;100586.50;;;6.59;96.79
22662;BME280;11497;52.222;21.246;2022-11-15T03:47:40;100587.47;;;6.50;96.60
22662;BME280;11497;52.222;21.246;2022-11-15T03:50:28;100581.50;;;6.47;97.04
22662;BME280;11497;52.222;21.246;2022-11-15T03:53:16;100579.78;;;6.46;97.02
22662;BME280;11497;52.222;21.246;2022-11-15T03:56:03;100578.00;;;6.48;97.19
22662;BME280;11497;52.222;21.246;2022-11-15T03:58:49;100571.13;;;6.45;97.18
22662;BME280;11497;52.222;21.246;2022-11-15T04:01:35;100565.75;;;6.56;97.14
22662;BME280;11497;52.222;21.246;2022-11-15T04:04:22;100571.78;;;6.56;96.80
22662;BME280;11497;52.222;21.246;2022-11-15T04:07:08;100555.22;;;6.63;96.78
22662;BME280;11497;52.222;21.246;2022-11-15T04:09:55;100562.19;;;6.63;96.86
22662;BME280;11497;52.222;21.246;2022-11-15T04:12:51;100563.84;;;6.67;96.24
22662;BME280;11497;52.222;21.246;2022-11-15T04:15:37;100564.84;;;6.58;96.14
22662;BME280;11497;52.222;21.246;2022-11-15T04:18:24;100545.94;;;6.49;96.34
22662;BME280;11497;52.222;21.246;2022-11-15T04:21:10;100551.06;;;6.50;96.41
22662;BME280;11497;52.222;21.246;2022-11-15T04:24:16;100550.25;;;6.50;96.66
22662;BME280;11497;52.222;21.246;2022-11-15T04:27:03;100547.38;;;6.66;96.24
22662;BME280;11497;52.222;21.246;2022-11-15T04:29:49;100552.09;;;6.42;96.13
22662;BME280;11497;52.222;21.246;2022-11-15T04:32:35;100547.59;;;6.51;96.02
22662;BME280;11497;52.222;21.246;2022-11-15T04:35:22;100543.50;;;6.37;96.18
22662;BME280;11497;52.222;21.246;2022-11-15T04:38:10;100545.16;;;6.41;96.07
22662;BME280;11497;52.222;21.246;2022-11-15T04:40:56;100542.50;;;6.47;96.12
22662;BME280;11497;52.222;21.246;2022-11-15T04:43:42;100540.97;;;6.30;96.22
22662;BME280;11497;52.222;21.246;2022-11-15T04:46:28;100531.41;;;6.32;96.76
22662;BME280;11497;52.222;21.246;2022-11-15T04:49:15;100527.94;;;6.33;96.92
22662;BME280;11497;52.222;21.246;2022-11-15T04:52:01;100530.41;;;6.44;97.07
22662;BME280;11497;52.222;21.246;2022-11-15T04:54:47;100532.22;;;6.38;96.68
22662;BME280;11497;52.222;21.246;2022-11-15T04:57:34;100520.94;;;6.39;96.76
22662;BME280;11497;52.222;21.246;2022-11-15T05:00:21;100526.09;;;6.42;97.13
22662;BME280;11497;52.222;21.246;2022-11-15T05:03:09;100518.41;;;6.34;97.28
22662;BME280;11497;52.222;21.246;2022-11-15T05:06:14;100524.38;;;6.41;97.55
22662;BME280;11497;52.222;21.246;2022-11-15T05:09:01;100518.38;;;6.36;97.70
22662;BME280;11497;52.222;21.246;2022-11-15T05:11:47;100519.13;;;6.45;97.49
22662;BME280;11497;52.222;21.246;2022-11-15T05:14:33;100520.91;;;6.42;97.30
22662;BME280;11497;52.222;21.246;2022-11-15T05:17:20;100517.47;;;6.40;97.50
22662;BME280;11497;52.222;21.246;2022-11-15T05:20:06;100519.28;;;6.33;96.86
22662;BME280;11497;52.222;21.246;2022-11-15T05:22:53;100508.72;;;6.45;96.72
22662;BME280;11497;52.222;21.246;2022-11-15T05:25:41;100514.22;;;6.22;96.97
22662;BME280;11497;52.222;21.246;2022-11-15T05:28:28;100503.78;;;6.25;97.58
22662;BME280;11497;52.222;21.246;2022-11-15T05:31:16;100504.56;;;6.32;97.91
22662;BME280;11497;52.222;21.246;2022-11-15T05:34:04;100501.97;;;6.30;97.73
22662;BME280;11497;52.222;21.246;2022-11-15T05:36:51;100503.81;;;6.22;97.93
22662;BME280;11497;52.222;21.246;2022-11-15T05:39:38;100501.13;;;6.30;98.11
22662;BME280;11497;52.222;21.246;2022-11-15T05:42:25;100508.19;;;6.20;98.36
22662;BME280;11497;52.222;21.246;2022-11-15T05:45:13;100502.97;;;6.22;98.37
22662;BME280;11497;52.222;21.246;2022-11-15T05:48:03;100498.63;;;6.22;98.50
22662;BME280;11497;52.222;21.246;2022-11-15T05:50:51;100510.75;;;6.23;98.53
22662;BME280;11497;52.222;21.246;2022-11-15T05:53:38;100511.78;;;6.10;98.92
22662;BME280;11497;52.222;21.246;2022-11-15T05:56:25;100510.66;;;6.29;99.35
22662;BME280;11497;52.222;21.246;2022-11-15T05:59:12;100503.72;;;6.31;98.89
22662;BME280;11497;52.222;21.246;2022-11-15T06:01:59;100507.25;;;6.24;98.72
22662;BME280;11497;52.222;21.246;2022-11-15T06:04:46;100508.03;;;6.31;98.61
22662;BME280;11497;52.222;21.246;2022-11-15T06:07:32;100505.47;;;6.29;98.59
22662;BME280;11497;52.222;21.246;2022-11-15T06:10:18;100505.28;;;6.42;98.12
22662;BME280;11497;52.222;21.246;2022-11-15T06:13:05;100504.56;;;6.32;98.06
22662;BME280;11497;52.222;21.246;2022-11-15T06:15:52;100511.53;;;6.30;98.11
22662;BME280;11497;52.222;21.246;2022-11-15T06:18:40;100509.88;;;6.24;98.38
22662;BME280;11497;52.222;21.246;2022-11-15T06:21:27;100507.25;;;6.24;98.27
22662;BME280;11497;52.222;21.246;2022-11-15T06:24:16;100515.97;;;6.20;98.32
22662;BME280;11497;52.222;21.246;2022-11-15T06:27:02;100511.66;;;6.21;98.42
22662;BME280;11497;52.222;21.246;2022-11-15T06:29:48;100505.47;;;6.29;98.68
22662;BME280;11497;52.222;21.246;2022-11-15T06:32:34;100502.94;;;6.25;98.59
22662;BME280;11497;52.222;21.246;2022-11-15T06:35:20;100508.06;;;6.29;98.57
22662;BME280;11497;52.222;21.246;2022-11-15T06:38:10;100510.81;;;6.17;98.79
22662;BME280;11497;52.222;21.246;2022-11-15T06:41:03;100505.56;;;6.22;99.18
22662;BME280;11497;52.222;21.246;2022-11-15T06:43:49;100516.78;;;6.25;99.48
22662;BME280;11497;52.222;21.246;2022-11-15T06:46:36;100514.97;;;6.32;99.44
22662;BME280;11497;52.222;21.246;2022-11-15T06:49:22;100513.97;;;6.41;98.83
22662;BME280;11497;52.222;21.246;2022-11-15T06:52:08;100512.38;;;6.30;98.98
22662;BME280;11497;52.222;21.246;2022-11-15T06:54:55;100514.69;;;6.50;99.23
22662;BME280;11497;52.222;21.246;2022-11-15T06:57:52;100514.78;;;6.44;98.28
22662;BME280;11497;52.222;21.246;2022-11-15T07:00:38;100513.19;;;6.34;98.38
22662;BME280;11497;52.222;21.246;2022-11-15T07:03:25;100519.50;;;6.16;98.61
22662;BME280;11497;52.222;21.246;2022-11-15T07:06:12;100528.91;;;6.26;99.21
22662;BME280;11497;52.222;21.246;2022-11-15T07:08:58;100518.22;;;6.46;98.80
22662;BME280;11497;52.222;21.246;2022-11-15T07:11:44;100518.28;;;6.43;98.45
22662;BME280;11497;52.222;21.246;2022-11-15T07:14:30;100511.41;;;6.38;98.63
22662;BME280;11497;52.222;21.246;2022-11-15T07:17:17;100517.47;;;6.40;98.85
22662;BME280;11497;52.222;21.246;2022-11-15T07:20:03;100505.28;;;6.42;98.72
22662;BME280;11497;52.222;21.246;2022-11-15T07:22:50;100512.13;;;6.49;98.75
22662;BME280;11497;52.222;21.246;2022-11-15T07:25:36;100515.81;;;6.34;98.64
22662;BME280;11497;52.222;21.246;2022-11-15T07:28:23;100510.56;;;6.37;98.75
22662;BME280;11497;52.222;21.246;2022-11-15T07:31:09;100506.00;;;6.51;98.60
22662;BME280;11497;52.222;21.246;2022-11-15T07:33:56;100512.19;;;6.46;98.45
22662;BME280;11497;52.222;21.246;2022-11-15T07:36:42;100510.28;;;6.54;98.41
22662;BME280;11497;52.222;21.246;2022-11-15T07:39:28;100510.25;;;6.57;98.37
22662;BME280;11497;52.222;21.246;2022-11-15T07:42:14;100502.50;;;6.52;98.18
22662;BME280;11497;52.222;21.246;2022-11-15T07:45:41;100500.63;;;6.62;98.12
22662;BME280;11497;52.222;21.246;2022-11-15T07:48:28;100499.81;;;6.60;97.84
22662;BME280;11497;52.222;21.246;2022-11-15T07:51:29;100499.69;;;6.67;97.91
22662;BME280;11497;52.222;21.246;2022-11-15T07:54:15;100499.69;;;6.67;97.61
22662;BME280;11497;52.222;21.246;2022-11-15T07:57:01;100503.06;;;6.74;97.30
22662;BME280;11497;52.222;21.246;2022-11-15T07:59:52;100497.09;;;6.67;96.81
22662;BME280;11497;52.222;21.246;2022-11-15T08:02:39;100496.38;;;6.58;96.56
22662;BME280;11497;52.222;21.246;2022-11-15T08:05:26;100495.13;;;6.83;96.69
22662;BME280;11497;52.222;21.246;2022-11-15T08:08:12;100486.47;;;6.81;95.77
22662;BME280;11497;52.222;21.246;2022-11-15T08:10:59;100487.41;;;6.77;95.62
22662;BME280;11497;52.222;21.246;2022-11-15T08:13:45;100483.59;;;6.96;94.94
22662;BME280;11497;52.222;21.246;2022-11-15T08:16:32;100476.00;;;6.86;94.64
22662;BME280;11497;52.222;21.246;2022-11-15T08:19:18;100469.28;;;6.71;94.31
22662;BME280;11497;52.222;21.246;2022-11-15T08:22:04;100467.56;;;6.70;94.65
22662;BME280;11497;52.222;21.246;2022-11-15T08:24:50;100473.50;;;6.78;94.94
22662;BME280;11497;52.222;21.246;2022-11-15T08:27:37;100469.94;;;6.85;94.82
22662;BME280;11497;52.222;21.246;2022-11-15T08:30:24;100462.91;;;6.90;94.52
22662;BME280;11497;52.222;21.246;2022-11-15T08:33:14;100466.41;;;6.89;95.13
22662;BME280;11497;52.222;21.246;2022-11-15T08:36:01;100464.38;;;7.04;95.18
22662;BME280;11497;52.222;21.246;2022-11-15T08:38:47;100459.28;;;6.97;94.80
22662;BME280;11497;52.222;21.246;2022-11-15T08:41:36;100462.78;;;6.96;94.49
22662;BME280;11497;52.222;21.246;2022-11-15T08:44:23;100452.56;;;6.87;93.94
22662;BME280;11497;52.222;21.246;2022-11-15T08:47:12;100454.97;;;6.96;94.25
22662;BME280;11497;52.222;21.246;2022-11-15T08:49:59;100458.06;;;7.18;93.42
22662;BME280;11497;52.222;21.246;2022-11-15T08:52:46;100452.78;;;7.23;92.91
22662;BME280;11497;52.222;21.246;2022-11-15T08:55:36;100449.50;;;7.12;92.74
22662;BME280;11497;52.222;21.246;2022-11-15T08:58:23;100454.03;;;7.00;93.41
22662;BME280;11497;52.222;21.246;2022-11-15T09:01:20;100452.06;;;7.15;93.60
22662;BME280;11497;52.222;21.246;2022-11-15T09:04:07;100452.81;;;7.20;93.03
22662;BME280;11497;52.222;21.246;2022-11-15T09:06:53;100446.63;;;7.27;92.54
22662;BME280;11497;52.222;21.246;2022-11-15T09:09:40;100448.63;;;7.13;91.90
22662;BME280;11497;52.222;21.246;2022-11-15T09:12:26;100446.72;;;7.21;91.54
22662;BME280;11497;52.222;21.246;2022-11-15T09:15:13;100440.66;;;7.22;91.58
22662;BME280;11497;52.222;21.246;2022-11-15T09:17:59;100443.13;;;7.28;91.54
22662;BME280;11497;52.222;21.246;2022-11-15T09:20:46;100436.16;;;7.30;91.62
22662;BME280;11497;52.222;21.246;2022-11-15T09:23:32;100434.91;;;7.48;91.19
22662;BME280;11497;52.222;21.246;2022-11-15T09:26:19;100435.00;;;7.43;90.06
22662;BME280;11497;52.222;21.246;2022-11-15T09:29:05;100422.59;;;7.56;90.14
22662;BME280;11497;52.222;21.246;2022-11-15T09:31:55;100420.72;;;7.62;89.08
22662;BME280;11497;52.222;21.246;2022-11-15T09:34:41;100418.59;;;7.38;88.54
22662;BME280;11497;52.222;21.246;2022-11-15T09:37:27;100405.47;;;7.44;88.57
22662;BME280;11497;52.222;21.246;2022-11-15T09:40:15;100418.44;;;7.47;88.18
22662;BME280;11497;52.222;21.246;2022-11-15T09:50:17;100392.75;;;7.72;87.32
22662;BME280;11497;52.222;21.246;2022-11-15T09:52:47;100389.53;;;7.59;87.56
22662;BME280;11497;52.222;21.246;2022-11-15T09:55:16;100391.41;;;7.53;87.56
22662;BME280;11497;52.222;21.246;2022-11-15T09:57:57;100385.41;;;7.89;87.08
22662;BME280;11497;52.222;21.246;2022-11-15T10:00:47;100386.75;;;7.68;87.02
22662;BME280;11497;52.222;21.246;2022-11-15T10:05:52;100379.56;;;7.80;87.13
22662;BME280;11497;52.222;21.246;2022-11-15T10:11:08;100379.81;;;7.67;86.92
22662;BME280;11497;52.222;21.246;2022-11-15T10:14:02;100371.31;;;7.59;87.06
22662;BME280;11497;52.222;21.246;2022-11-15T10:22:29;100375.94;;;7.85;86.36
22662;BME280;11497;52.222;21.246;2022-11-15T10:27:54;100383.69;;;7.48;86.39
22662;BME280;11497;52.222;21.246;2022-11-15T10:30:23;100372.25;;;7.55;87.51
22662;BME280;11497;52.222;21.246;2022-11-15T10:32:57;100366.03;;;7.62;87.47
22662;BME280;11497;52.222;21.246;2022-11-15T10:35:26;100373.22;;;7.51;87.16
22662;BME280;11497;52.222;21.246;2022-11-15T10:38:06;100367.97;;;7.53;87.36
22662;BME280;11497;52.222;21.246;2022-11-15T10:40:36;100367.03;;;7.57;87.98
22662;BME280;11497;52.222;21.246;2022-11-15T10:43:18;100364.06;;;7.74;87.77
22662;BME280;11497;52.222;21.246;2022-11-15T10:45:47;100355.50;;;7.68;87.13
22662;BME280;11497;52.222;21.246;2022-11-15T10:50:47;100347.09;;;7.54;86.63
22662;BME280;11497;52.222;21.246;2022-11-15T10:56:03;100347.50;;;7.76;86.93
22662;BME280;11497;52.222;21.246;2022-11-15T10:58:43;100352.00;;;7.70;86.62
22662;BME280;11497;52.222;21.246;2022-11-15T11:01:18;100345.81;;;7.74;86.64
22662;BME280;11497;52.222;21.246;2022-11-15T11:06:27;100338.88;;;7.74;86.17
22662;BME280;11497;52.222;21.246;2022-11-15T11:09:04;100339.50;;;7.84;85.95
22662;BME280;11497;52.222;21.246;2022-11-15T11:11:59;100331.97;;;7.72;85.99
22662;BME280;11497;52.222;21.246;2022-11-15T11:14:33;100330.06;;;7.80;85.94
22662;BME280;11497;52.222;21.246;2022-11-15T11:17:28;100321.38;;;7.79;85.56
22662;BME280;11497;52.222;21.246;2022-11-15T11:23:17;100321.47;;;7.76;85.81
22662;BME280;11497;52.222;21.246;2022-11-15T11:28:49;100322.59;;;7.64;86.17
22662;BME280;11497;52.222;21.246;2022-11-15T11:48:33;100305.31;;;7.60;86.70
22662;BME280;11497;52.222;21.246;2022-11-15T11:51:40;100303.53;;;7.62;87.38
22662;BME280;11497;52.222;21.246;2022-11-15T11:54:17;100302.84;;;7.54;87.62
22662;BME280;11497;52.222;21.246;2022-11-15T11:56:47;100299.31;;;7.57;87.56
22662;BME280;11497;52.222;21.246;2022-11-15T12:02:27;100283.41;;;7.69;87.11
22662;BME280;11497;52.222;21.246;2022-11-15T12:05:15;100279.69;;;7.79;87.70
22662;BME280;11497;52.222;21.246;2022-11-15T12:07:47;100271.69;;;7.87;87.37
22662;BME280;11497;52.222;21.246;2022-11-15T12:10:24;100268.97;;;7.91;87.06
22662;BME280;11497;52.222;21.246;2022-11-15T12:13:18;100264.53;;;7.95;86.05
22662;BME280;11497;52.222;21.246;2022-11-15T12:15:57;100250.91;;;7.84;86.42
22662;BME280;11497;52.222;21.246;2022-11-15T12:18:31;100251.13;;;7.76;86.80
22662;BME280;11497;52.222;21.246;2022-11-15T12:21:07;100251.72;;;7.86;86.82
22662;BME280;11497;52.222;21.246;2022-11-15T12:23:52;100263.09;;;7.82;86.95
22662;BME280;11497;52.222;21.246;2022-11-15T12:26:31;100259.72;;;7.80;86.77
22662;BME280;11497;52.222;21.246;2022-11-15T12:29:05;100263.44;;;7.70;86.77
22662;BME280;11497;52.222;21.246;2022-11-15T12:31:38;100256.47;;;7.70;87.21
22662;BME280;11497;52.222;21.246;2022-11-15T12:36:52;100244.31;;;7.71;87.28
22662;BME280;11497;52.222;21.246;2022-11-15T12:39:21;100245.91;;;7.76;87.10
22662;BME280;11497;52.222;21.246;2022-11-15T12:52:07;100245.63;;;7.87;87.69
22662;BME280;11497;52.222;21.246;2022-11-15T12:57:51;100241.25;;;7.87;87.33
22662;BME280;11497;52.222;21.246;2022-11-15T13:03:22;100230.31;;;7.75;87.89
22662;BME280;11497;52.222;21.246;2022-11-15T13:05:55;100225.19;;;7.72;88.00
22662;BME280;11497;52.222;21.246;2022-11-15T13:08:45;100231.00;;;7.81;88.13
22662;BME280;11497;52.222;21.246;2022-11-15T13:11:43;100222.22;;;7.85;87.60
22662;BME280;11497;52.222;21.246;2022-11-15T13:19:59;100225.06;;;7.76;87.42
22662;BME280;11497;52.222;21.246;2022-11-15T13:22:37;100223.75;;;7.58;87.63
22662;BME280;11497;52.222;21.246;2022-11-15T13:34:03;100227.59;;;7.42;88.41
22662;BME280;11497;52.222;21.246;2022-11-15T13:37:01;100214.59;;;7.41;88.75
22662;BME280;11497;52.222;21.246;2022-11-15T13:39:31;100203.50;;;7.34;89.31
22662;BME280;11497;52.222;21.246;2022-11-15T13:42:00;100210.44;;;7.35;89.37
22662;BME280;11497;52.222;21.246;2022-11-15T13:44:31;100208.53;;;7.40;89.83
22662;BME280;11497;52.222;21.246;2022-11-15T13:47:04;100202.38;;;7.44;89.78
22662;BME280;11497;52.222;21.246;2022-11-15T13:49:33;100200.56;;;7.48;90.12
22662;BME280;11497;52.222;21.246;2022-11-15T13:52:04;100201.69;;;7.73;89.13
22662;BME280;11497;52.222;21.246;2022-11-15T13:55:21;100195.06;;;7.94;88.36
22662;BME280;11497;52.222;21.246;2022-11-15T13:57:47;100191.41;;;8.01;87.30
22662;BME280;11497;52.222;21.246;2022-11-15T14:00:43;100187.84;;;7.71;87.25
22662;BME280;11497;52.222;21.246;2022-11-15T14:06:09;100190.06;;;7.51;88.29
22662;BME280;11497;52.222;21.246;2022-11-15T14:08:42;100195.34;;;7.48;88.38
22662;BME280;11497;52.222;21.246;2022-11-15T14:11:24;100196.34;;;7.42;88.90
22662;BME280;11497;52.222;21.246;2022-11-15T14:16:44;100191.44;;;7.30;89.72
22662;BME280;11497;52.222;21.246;2022-11-15T14:19:34;100188.91;;;7.27;89.90
22662;BME280;11497;52.222;21.246;2022-11-15T14:24:45;100178.28;;;7.36;89.27
22662;BME280;11497;52.222;21.246;2022-11-15T14:29:49;100173.66;;;7.47;89.74
22662;BME280;11497;52.222;21.246;2022-11-15T14:32:19;100178.69;;;7.55;89.47
22662;BME280;11497;52.222;21.246;2022-11-15T14:34:53;100169.28;;;7.49;88.59
22662;BME280;11497;52.222;21.246;2022-11-15T14:37:31;100170.09;;;7.51;88.87
22662;BME280;11497;52.222;21.246;2022-11-15T14:40:04;100157.00;;;7.54;88.54
22662;BME280;11497;52.222;21.246;2022-11-15T14:42:32;100170.63;;;7.65;88.01
22662;BME280;11497;52.222;21.246;2022-11-15T14:45:01;100168.31;;;7.53;87.82
22662;BME280;11497;52.222;21.246;2022-11-15T14:47:28;100174.66;;;7.42;88.28
22662;BME280;11497;52.222;21.246;2022-11-15T14:49:56;100169.84;;;7.26;88.84
22662;BME280;11497;52.222;21.246;2022-11-15T14:52:32;100165.69;;;7.18;89.56
22662;BME280;11497;52.222;21.246;2022-11-15T14:55:21;100172.53;;;7.22;89.81
22662;BME280;11497;52.222;21.246;2022-11-15T14:57:50;100164.06;;;7.14;89.96
22662;BME280;11497;52.222;21.246;2022-11-15T15:00:20;100169.41;;;7.06;90.57
22662;BME280;11497;52.222;21.246;2022-11-15T15:02:53;100164.38;;;6.98;90.91
22662;BME280;11497;52.222;21.246;2022-11-15T15:05:32;100173.94;;;6.98;91.29
22662;BME280;11497;52.222;21.246;2022-11-15T15:08:00;100181.09;;;6.90;91.45
22662;BME280;11497;52.222;21.246;2022-11-15T15:10:32;100174.84;;;6.95;91.58
22662;BME280;11497;52.222;21.246;2022-11-15T15:13:23;100165.59;;;6.84;91.85
22662;BME280;11497;52.222;21.246;2022-11-15T15:15:52;100162.03;;;6.88;92.00
22662;BME280;11497;52.222;21.246;2022-11-15T15:18:20;100161.38;;;6.78;92.52
22662;BME280;11497;52.222;21.246;2022-11-15T15:20:58;100164.81;;;6.80;92.77
22662;BME280;11497;52.222;21.246;2022-11-15T15:23:34;100167.22;;;6.89;92.88
22662;BME280;11497;52.222;21.246;2022-11-15T15:26:03;100158.63;;;6.86;92.96
22662;BME280;11497;52.222;21.246;2022-11-15T15:28:31;100165.50;;;6.88;93.12
22662;BME280;11497;52.222;21.246;2022-11-15T15:31:02;100160.31;;;6.88;93.11
22662;BME280;11497;52.222;21.246;2022-11-15T15:33:29;100155.22;;;6.82;93.19
22662;BME280;11497;52.222;21.246;2022-11-15T15:35:57;100156.94;;;6.83;93.29
22662;BME280;11497;52.222;21.246;2022-11-15T15:38:26;100167.28;;;6.86;93.48
22662;BME280;11497;52.222;21.246;2022-11-15T15:40:54;100165.63;;;6.82;93.74
22662;BME280;11497;52.222;21.246;2022-11-15T15:43:22;100156.81;;;6.89;93.87
22662;BME280;11497;52.222;21.246;2022-11-15T15:45:50;100152.06;;;7.07;93.30
22662;BME280;11497;52.222;21.246;2022-11-15T15:48:18;100145.16;;;7.06;93.19
22662;BME280;11497;52.222;21.246;2022-11-15T15:50:46;100156.69;;;6.94;93.00
22662;BME280;11497;52.222;21.246;2022-11-15T15:53:14;100150.50;;;6.99;93.15
22662;BME280;11497;52.222;21.246;2022-11-15T15:55:42;100146.66;;;7.16;92.65
22662;BME280;11497;52.222;21.246;2022-11-15T15:58:10;100150.88;;;7.21;91.98
22662;BME280;11497;52.222;21.246;2022-11-15T16:00:38;100147.19;;;7.30;91.21
22662;BME280;11497;52.222;21.246;2022-11-15T16:03:06;100140.59;;;7.15;91.53
22662;BME280;11497;52.222;21.246;2022-11-15T16:05:34;100132.72;;;7.18;91.08
22662;BME280;11497;52.222;21.246;2022-11-15T16:08:02;100127.81;;;7.05;90.97
22662;BME280;11497;52.222;21.246;2022-11-15T16:10:32;100135.59;;;7.06;91.52
22662;BME280;11497;52.222;21.246;2022-11-15T16:13:01;100132.47;;;7.29;91.30
22662;BME280;11497;52.222;21.246;2022-11-15T16:15:31;100136.66;;;6.97;90.81
22662;BME280;11497;52.222;21.246;2022-11-15T16:18:00;100128.97;;;6.93;91.31
22662;BME280;11497;52.222;21.246;2022-11-15T16:20:40;100132.34;;;6.96;91.17
22662;BME280;11497;52.222;21.246;2022-11-15T16:23:14;100147.75;;;6.67;91.31
22662;BME280;11497;52.222;21.246;2022-11-15T16:25:50;100144.25;;;6.68;91.93
22662;BME280;11497;52.222;21.246;2022-11-15T16:30:58;100137.53;;;6.58;92.06